Time,TemperatureF,DewpointF,PressureIn,WindDirection,WindDirectionDegrees,WindSpeedMPH,WindSpeedGustMPH,Humidity,HourlyPrecipIn,Conditions,Clouds,dailyrainin,SoftwareType,DateUTC
2013-11-28 00:03:00,22.0,-99.9,-100.00,North,0,0.0,0.0,-999,-99.99,,,-99.99,,2013-11-28 06:03:00,
2013-11-28 00:22:00,22.0,-99.9,-100.00,North,0,0.0,0.0,-999,-99.99,,,-99.99,,2013-11-28 06:22:00,
2013-11-28 00:52:00,22.0,-99.9,-100.00,North,0,0.0,0.0,-999,-99.99,,,-99.99,,2013-11-28 06:52:00,
2013-11-28 01:52:00,23.0,-99.9,-100.00,North,0,0.0,0.0,-999,-99.99,,,-99.99,,2013-11-28 07:52:00,
2013-11-28 02:02:00,23.0,-99.9,-100.00,North,0,0.0,0.0,-999,-99.99,,,-99.99,,2013-11-28 08:02:00,
2013-11-28 02:22:00,23.0,-99.9,-100.00,North,0,0.0,0.0,-999,-99.99,,,-99.99,,2013-11-28 08:22:00,
2013-11-28 02:32:00,23.0,-99.9,-100.00,North,0,0.0,0.0,-999,-99.99,,,-99.99,,2013-11-28 08:32:00,
2013-11-28 02:53:00,23.0,-99.9,-100.00,South,190,9.0,11.0,-999,-99.99,,,-99.99,,2013-11-28 08:53:00,
2013-11-28 03:02:00,23.0,-99.9,-100.00,South,190,9.0,11.0,-999,-99.99,,,-99.99,,2013-11-28 09:02:00,
2013-11-28 03:22:00,23.0,-99.9,-100.00,SSW,210,11.0,14.0,-999,-99.99,,,-99.99,,2013-11-28 09:22:00,
2013-11-28 03:33:00,23.0,-99.9,-100.00,SSW,210,11.0,14.0,-999,-99.99,,,-99.99,,2013-11-28 09:33:00,
2013-11-28 03:53:00,23.0,-99.9,-100.00,SSW,210,11.0,13.0,-999,-99.99,,,-99.99,,2013-11-28 09:53:00,
2013-11-28 04:03:00,23.0,-99.9,-100.00,SSW,210,11.0,13.0,-999,-99.99,,,-99.99,,2013-11-28 10:03:00,
2013-11-28 04:23:00,23.0,-99.9,-100.00,South,190,9.0,10.0,-999,-99.99,,,-99.99,,2013-11-28 10:23:00,
2013-11-28 04:33:00,23.0,-99.9,-100.00,South,190,9.0,10.0,-999,-99.99,,,-99.99,,2013-11-28 10:33:00,
2013-11-28 05:22:00,23.0,-99.9,-100.00,North,0,0.0,0.0,-999,-99.99,,,-99.99,,2013-11-28 11:22:00,
2013-11-28 05:33:00,23.0,-99.9,-100.00,North,0,0.0,0.0,-999,-99.99,,,-99.99,,2013-11-28 11:33:00,
2013-11-28 05:52:00,23.0,-99.9,-100.00,SE,140,1.0,5.0,-999,-99.99,,,-99.99,,2013-11-28 11:52:00,
2013-11-28 06:22:00,23.0,-99.9,-100.00,North,0,0.0,0.0,-999,-99.99,,,-99.99,,2013-11-28 12:22:00,
2013-11-28 06:32:00,23.0,-99.9,-100.00,North,0,0.0,0.0,-999,-99.99,,,-99.99,,2013-11-28 12:32:00,
2013-11-28 06:52:00,23.0,-99.9,-100.00,North,0,0.0,0.0,-999,-99.99,,,-99.99,,2013-11-28 12:52:00,
2013-11-28 07:22:00,22.0,-99.9,-100.00,North,0,0.0,0.0,-999,-99.99,,,-99.99,,2013-11-28 13:22:00,
2013-11-28 07:32:00,22.0,-99.9,-100.00,North,0,0.0,0.0,-999,-99.99,,,-99.99,,2013-11-28 13:32:00,
2013-11-28 07:52:00,22.0,-99.9,-100.00,North,0,0.0,0.0,-999,-99.99,,,-99.99,,2013-11-28 13:52:00,
2013-11-28 08:02:00,22.0,-99.9,-100.00,North,0,0.0,0.0,-999,-99.99,,,-99.99,,2013-11-28 14:02:00,
2013-11-28 08:22:00,22.0,-99.9,-100.00,SSW,200,7.0,8.0,-999,-99.99,,,-99.99,,2013-11-28 14:22:00,
2013-11-28 08:52:00,23.0,-99.9,-100.00,North,0,0.0,2.0,-999,-99.99,,,-99.99,,2013-11-28 14:52:00,
2013-11-28 08:53:00,24.0,-99.9,-100.00,South,190,7.0,8.0,-999,-99.99,,,-99.99,,2013-11-28 14:53:00,
2013-11-28 09:02:00,23.0,-99.9,-100.00,North,0,0.0,2.0,-999,-99.99,,,-99.99,,2013-11-28 15:02:00,
2013-11-28 09:22:00,24.0,-99.9,-100.00,South,190,5.0,8.0,-999,-99.99,,,-99.99,,2013-11-28 15:22:00,
2013-11-28 09:23:00,24.0,-99.9,-100.00,North,0,0.0,0.0,-999,-99.99,,,-99.99,,2013-11-28 15:23:00,
2013-11-28 09:34:00,24.0,-99.9,-100.00,South,190,5.0,8.0,-999,-99.99,,,-99.99,,2013-11-28 15:34:00,
2013-11-28 09:53:00,24.0,-99.9,-100.00,North,0,0.0,0.0,-999,-99.99,,,-99.99,,2013-11-28 15:53:00,
2013-11-28 11:23:00,25.0,-99.9,-100.00,North,0,0.0,0.0,-999,-99.99,,,-99.99,,2013-11-28 17:23:00,
2013-11-28 11:33:00,25.0,-99.9,-100.00,North,0,0.0,0.0,-999,-99.99,,,-99.99,,2013-11-28 17:33:00,
2013-11-28 11:52:00,25.0,-99.9,-100.00,NNW,330,14.0,15.0,-999,-99.99,,,-99.99,,2013-11-28 17:52:00,
2013-11-28 12:02:00,25.0,-99.9,-100.00,NNW,330,14.0,15.0,-999,-99.99,,,-99.99,,2013-11-28 18:02:00,
2013-11-28 12:22:00,26.0,-99.9,-100.00,NNW,330,14.0,16.0,-999,-99.99,,,-99.99,,2013-11-28 18:22:00,
2013-11-28 12:33:00,26.0,-99.9,-100.00,NNW,330,14.0,16.0,-999,-99.99,,,-99.99,,2013-11-28 18:33:00,
2013-11-28 12:52:00,26.0,-99.9,-100.00,North,350,15.0,17.0,-999,-99.99,,,-99.99,,2013-11-28 18:52:00,
2013-11-28 13:02:00,26.0,-99.9,-100.00,North,350,15.0,17.0,-999,-99.99,,,-99.99,,2013-11-28 19:02:00,
2013-11-28 13:22:00,27.0,-99.9,-100.00,North,350,15.0,17.0,-999,-99.99,,,-99.99,,2013-11-28 19:22:00,
2013-11-28 13:32:00,27.0,-99.9,-100.00,North,350,15.0,17.0,-999,-99.99,,,-99.99,,2013-11-28 19:32:00,
2013-11-28 13:52:00,27.0,-99.9,-100.00,North,360,15.0,18.0,-999,-99.99,,,-99.99,,2013-11-28 19:52:00,
2013-11-28 14:02:00,27.0,-99.9,-100.00,North,360,15.0,18.0,-999,-99.99,,,-99.99,,2013-11-28 20:02:00,
2013-11-28 14:22:00,28.0,-99.9,-100.00,North,350,16.0,21.0,-999,-99.99,,,-99.99,,2013-11-28 20:22:00,
2013-11-28 14:32:00,28.0,-99.9,-100.00,North,350,16.0,21.0,-999,-99.99,,,-99.99,,2013-11-28 20:32:00,
2013-11-28 14:52:00,27.0,-99.9,-100.00,NNW,340,17.0,22.0,-999,-99.99,,,-99.99,,2013-11-28 20:52:00,
2013-11-28 15:02:00,27.0,-99.9,-100.00,NNW,340,17.0,22.0,-999,-99.99,,,-99.99,,2013-11-28 21:02:00,
2013-11-28 15:22:00,27.0,-99.9,-100.00,North,350,18.0,21.0,-999,-99.99,,,-99.99,,2013-11-28 21:22:00,
2013-11-28 15:23:00,27.0,-99.9,-100.00,North,350,20.0,23.0,-999,-99.99,,,-99.99,,2013-11-28 21:23:00,
2013-11-28 15:33:00,27.0,-99.9,-100.00,North,350,18.0,21.0,-999,-99.99,,,-99.99,,2013-11-28 21:33:00,
2013-11-28 15:53:00,27.0,-99.9,-100.00,North,350,20.0,25.0,-999,-99.99,,,-99.99,,2013-11-28 21:53:00,
2013-11-28 16:03:00,27.0,-99.9,-100.00,North,350,20.0,25.0,-999,-99.99,,,-99.99,,2013-11-28 22:03:00,
2013-11-28 16:53:00,28.0,-99.9,-100.00,North,350,21.0,24.0,-999,-99.99,,,-99.99,,2013-11-28 22:53:00,
2013-11-28 17:02:00,28.0,-99.9,-100.00,North,350,21.0,24.0,-999,-99.99,,,-99.99,,2013-11-28 23:02:00,
2013-11-28 17:52:00,27.0,-99.9,-100.00,NNW,340,28.0,30.0,-999,-99.99,,,-99.99,,2013-11-28 23:52:00,
2013-11-28 18:02:00,27.0,-99.9,-100.00,NNW,340,28.0,30.0,-999,-99.99,,,-99.99,,2013-11-29 00:02:00,
2013-11-28 18:22:00,28.0,-99.9,-100.00,NNW,330,24.0,26.0,-999,-99.99,,,-99.99,,2013-11-29 00:22:00,
2013-11-28 18:32:00,28.0,-99.9,-100.00,NNW,330,24.0,26.0,-999,-99.99,,,-99.99,,2013-11-29 00:32:00,
2013-11-28 18:52:00,27.0,-99.9,-100.00,NNW,340,24.0,28.0,-999,-99.99,,,-99.99,,2013-11-29 00:52:00,
2013-11-28 19:01:00,27.0,-99.9,-100.00,NNW,340,24.0,28.0,-999,-99.99,,,-99.99,,2013-11-29 01:01:00,
2013-11-28 19:22:00,27.0,-99.9,-100.00,NNW,340,25.0,31.0,-999,-99.99,,,-99.99,,2013-11-29 01:22:00,
2013-11-28 19:32:00,27.0,-99.9,-100.00,NNW,340,25.0,31.0,-999,-99.99,,,-99.99,,2013-11-29 01:32:00,
2013-11-28 19:52:00,26.0,-99.9,-100.00,NNW,330,26.0,31.0,-999,-99.99,,,-99.99,,2013-11-29 01:52:00,
2013-11-28 20:02:00,26.0,-99.9,-100.00,NNW,330,26.0,31.0,-999,-99.99,,,-99.99,,2013-11-29 02:02:00,
2013-11-28 20:22:00,27.0,-99.9,-100.00,NW,320,28.0,31.0,-999,-99.99,,,-99.99,,2013-11-29 02:22:00,
2013-11-28 20:32:00,27.0,-99.9,-100.00,NW,320,28.0,31.0,-999,-99.99,,,-99.99,,2013-11-29 02:32:00,
2013-11-28 21:22:00,26.0,-99.9,-100.00,North,360,14.0,22.0,-999,-99.99,,,-99.99,,2013-11-29 03:22:00,
2013-11-28 21:23:00,26.0,-99.9,-100.00,NNE,30,8.0,11.0,-999,-99.99,,,-99.99,,2013-11-29 03:23:00,
2013-11-28 21:33:00,26.0,-99.9,-100.00,North,360,14.0,22.0,-999,-99.99,,,-99.99,,2013-11-29 03:33:00,
2013-11-28 21:54:00,26.0,-99.9,-100.00,East,90,9.0,20.0,-999,-99.99,,,-99.99,,2013-11-29 03:54:00,
2013-11-28 22:03:00,26.0,-99.9,-100.00,East,90,9.0,20.0,-999,-99.99,,,-99.99,,2013-11-29 04:03:00,
2013-11-28 22:52:00,27.0,-99.9,-100.00,NNE,20,9.0,11.0,-999,-99.99,,,-99.99,,2013-11-29 04:52:00,
2013-11-28 23:02:00,27.0,-99.9,-100.00,NNE,20,9.0,11.0,-999,-99.99,,,-99.99,,2013-11-29 05:02:00,
2013-11-28 23:22:00,27.0,-99.9,-100.00,NNE,20,13.0,15.0,-999,-99.99,,,-99.99,,2013-11-29 05:22:00,
2013-11-28 23:33:00,27.0,-99.9,-100.00,NNE,20,13.0,15.0,-999,-99.99,,,-99.99,,2013-11-29 05:33:00,
2013-11-28 23:53:00,27.0,-99.9,-100.00,North,10,16.0,18.0,-999,-99.99,,,-99.99,,2013-11-29 05:53:00,